Aeroporto :
LOGIN :

Iscrizione | Disclaimer

   EN    FR    IT 

 










Sommario :    VFR   VFR Marginale   IFR   IFR Intensivo   IFR Molto Intensivo
Visibilità : 
Base nubi : 
>= 8 km
>= 3000ft
5 / 8 km
1000 / 3000 ft
1500m / 5 km
500 / 1000 ft
800 / 1500m
200 / 500 ft
< 800m
< 200 ft
Simboli :   Temporali  Nebbia  Neve Forte  Precipitazioni Forti  Vento > 20 kt
SIGMETs :   Varie  Temporali  Ghiacco  Turbolenza  Onda orograficha  Ceneri Vulcaniche






- Altitudine del aeroporto : 49 ft
- Codice IATA : GLZ


EHGR - Gilze-Rijen Airbase

ULTIMO METAR :
  • 192225Z AUTO 20011KT 160V240 9999 +DZ SCT011 SCT017 BKN029 06/05 Q1018 GRN

METARs OBSOLETI :
  • 192202Z AUTO 20012KT 150V230 9999 -DZ FEW011 BKN031 OVC035 06/05 Q1018 BLU
  • 192155Z AUTO 19013KT 140V230 9999 BKN012 OVC014 06/05 Q1018 GRN 23007KT 9999 BKN020 OVC025 BECMG FEW012 BKN015
  • 192125Z AUTO 19011KT 150V230 9999 FEW011 BKN045 OVC074 06/05 Q1019 BLU 23007KT 9999 BKN020 OVC025 BECMG FEW012 BKN015
  • 192102Z AUTO 20011KT 160V240 9999 -DZ FEW016 BKN026 BKN046 06/04 Q1019 BLU 23007KT 9999 BKN020 OVC025 BECMG FEW012 BKN015
  • 192055Z AUTO 20010KT 160V230 9999 -RADZ BKN016 BKN021 BKN027 06/04 Q1019 WHT 23007KT 9999 BKN020 OVC025 BECMG FEW012 BKN015
  • 192030Z AUTO 20009KT 160V240 9999 DZ SCT024 BKN028 OVC031 06/04 Q1019 WHT 23007KT 9999 BKN020 OVC025 BECMG FEW012 BKN015
  • 192025Z AUTO 20009KT 140V310 9999 DZ BKN026 OVC030 06/04 Q1019 BLU 23007KT 9999 BKN020 OVC025 BECMG FEW012 BKN015
  • 192005Z AUTO 21008KT 180V250 9999 DZ FEW024 OVC029 06/03 Q1020 BLU 23007KT 9999 BKN020 OVC025 BECMG SCT018 BKN022
  • 191955Z AUTO 21009KT 170V250 9999 SCT023 OVC027 06/03 Q1020 WHT 23007KT 9999 BKN020 OVC025 BECMG SCT018 BKN022

TAF TAF EHGR
Valido dal 19 a 18 ore il 20 a 06 ore UTC


191742Z 1918/2006 21005KT 9999 BKN035
BECMG 1921/1923 21012G22KT -RA BKN011 OVC015
TEMPO 1922/2001 4000 RADZ SCT008 BKN010
BECMG 2001/2003 NSW SCT015 BKN025
TEMPO 2002/2006 FEW015 BKN025
PROB30
TEMPO 2001/2006 3000 -DZ FEW008 SCT012 BKN015



MetMap, La meteo Aeronautica in un colpo d'occhio ! - Copyright ORBIFLY Dicembre 2007 - Disclaimer

ORBIFLY MET'MAP TEAM :

Programmazione e sviluppo : Alexandra Zaïnal
Concezione : Baudouin d'Aumeries
Aiuto per la programmazione : Marc-Olivier Méhu
Supporto tecnico e logistico : Manuel Goepfert
Aiuto per la traduzione : Arnaldo La Scala

Contatto : metmap@orbifly.com




FONTI E CREDITI :

   NOAA